Time;durP1;ratioP1;P1;durP2;ratioP2;P2;SDS_P1;SDS_P2;PMS_P1;PMS_P2;Temp;Humidity;BMP_temperature;BMP_pressure;BME280_temperature;BME280_humidity;BME280_pressure;Samples;Min_cycle;Max_cycle;Signal;HPM_P1;HPM_P2
2022/10/27 00:00:31;;;;;;;39.92;30.10;;;;;;;10.36;100.00;100384.84;4897107;29;20132;-86
2022/10/27 00:02:56;;;;;;;44.85;33.00;;;;;;;10.36;100.00;100384.00;4896936;29;20032;-85
2022/10/27 00:05:22;;;;;;;39.78;29.65;;;;;;;10.33;100.00;100378.91;4897197;29;20036;-85
2022/10/27 00:07:48;;;;;;;44.15;31.55;;;;;;;10.33;100.00;100371.94;4897434;29;20036;-85
2022/10/27 00:10:13;;;;;;;40.13;30.27;;;;;;;10.36;100.00;100379.63;4896814;29;20040;-85
2022/10/27 00:12:39;;;;;;;42.33;31.05;;;;;;;10.37;100.00;100389.16;4881249;29;20376;-85
2022/10/27 00:15:05;;;;;;;40.50;30.40;;;;;;;10.28;100.00;100373.84;4880865;29;20910;-85
2022/10/27 00:17:30;;;;;;;40.17;29.15;;;;;;;10.33;100.00;100384.97;4859180;29;20037;-84
2022/10/27 00:19:56;;;;;;;38.15;27.20;;;;;;;10.30;100.00;100366.84;4843725;29;20041;-85
2022/10/27 00:22:22;;;;;;;36.03;23.98;;;;;;;10.29;100.00;100365.13;4859584;29;20494;-85
2022/10/27 00:24:47;;;;;;;33.72;23.73;;;;;;;10.34;100.00;100371.03;4859398;29;20029;-84
2022/10/27 00:27:12;;;;;;;34.60;25.92;;;;;;;10.33;100.00;100371.94;4859234;29;20133;-85
2022/10/27 00:29:38;;;;;;;38.15;28.10;;;;;;;10.34;100.00;100389.25;4859281;29;20400;-85
2022/10/27 00:32:04;;;;;;;38.10;25.75;;;;;;;10.36;100.00;100392.66;4843626;29;20048;-89
2022/10/27 00:34:29;;;;;;;31.58;24.95;;;;;;;10.34;100.00;100398.84;4843856;29;20045;-89
2022/10/27 00:36:55;;;;;;;33.08;24.10;;;;;;;10.34;100.00;100394.47;4843573;29;20048;-90
2022/10/27 00:39:20;;;;;;;36.00;24.15;;;;;;;10.31;100.00;100397.16;4843726;29;20034;-88
2022/10/27 00:41:46;;;;;;;31.52;22.55;;;;;;;10.31;100.00;100402.38;4843764;29;20431;-90
2022/10/27 00:44:33;;;;;;;28.02;22.27;;;;;;;10.27;100.00;100392.97;4843279;29;20406;-89
2022/10/27 00:47:04;;;;;;;28.85;20.48;;;;;;;10.27;100.00;100405.13;4858785;29;20065;-89
2022/10/27 00:49:42;;;;;;;30.95;22.25;;;;;;;10.20;100.00;100394.06;4877164;29;20560;-89
2022/10/27 00:52:38;;;;;;;32.50;21.67;;;;;;;10.13;100.00;100397.75;4880421;29;20682;-89
2022/10/27 00:55:14;;;;;;;29.00;21.30;;;;;;;10.09;100.00;100412.63;4887746;29;20045;-89
2022/10/27 00:57:43;;;;;;;25.95;19.50;;;;;;;10.06;100.00;100414.47;4877380;29;20033;-89
2022/10/27 01:00:09;;;;;;;24.20;19.35;;;;;;;9.99;100.00;100417.28;4877099;29;20037;-89
2022/10/27 01:02:35;;;;;;;20.42;16.13;;;;;;;9.93;100.00;100412.25;4861908;29;20033;-89
2022/10/27 01:05:25;;;;;;;21.20;16.40;;;;;;;9.87;100.00;100414.22;4877102;29;20037;-90
2022/10/27 01:07:55;;;;;;;23.67;17.45;;;;;;;9.79;100.00;100406.63;4877327;29;20021;-90
2022/10/27 01:10:21;;;;;;;23.42;19.35;;;;;;;9.73;100.00;100414.63;4877141;29;20040;-89
2022/10/27 01:12:47;;;;;;;27.88;22.00;;;;;;;9.69;100.00;100413.88;4877092;29;20029;-90
2022/10/27 01:15:13;;;;;;;29.73;21.70;;;;;;;9.65;100.00;100411.41;4876961;29;20033;-90
2022/10/27 01:17:48;;;;;;;27.33;21.65;;;;;;;9.53;100.00;100412.66;4877182;29;20025;-90
2022/10/27 01:20:41;;;;;;;25.30;18.95;;;;;;;9.53;100.00;100425.66;4876645;29;20059;-89
2022/10/27 01:23:24;;;;;;;29.60;20.63;;;;;;;9.48;100.00;100427.50;4872629;29;20039;-90
2022/10/27 01:26:19;;;;;;;28.75;21.33;;;;;;;9.40;100.00;100430.38;4870205;29;20068;-89
2022/10/27 01:29:16;;;;;;;27.77;20.98;;;;;;;9.34;100.00;100427.06;4861538;29;20500;-90
2022/10/27 01:31:59;;;;;;;24.30;19.65;;;;;;;9.29;100.00;100424.63;4877437;29;20032;-88
2022/10/27 01:34:36;;;;;;;27.90;17.77;;;;;;;9.27;100.00;100430.75;4879868;29;20074;-89
2022/10/27 01:37:13;;;;;;;28.20;20.15;;;;;;;9.23;100.00;100430.84;4879510;29;20361;-88
2022/10/27 01:39:46;;;;;;;25.80;18.15;;;;;;;9.20;100.00;100433.53;4895242;29;20092;-89
2022/10/27 01:42:24;;;;;;;24.27;17.40;;;;;;;9.07;100.00;100419.19;4895001;29;20501;-89
2022/10/27 01:44:53;;;;;;;22.83;17.13;;;;;;;9.14;100.00;100432.84;4879729;29;20028;-90
2022/10/27 01:47:21;;;;;;;25.80;17.55;;;;;;;8.94;100.00;100407.44;4879383;29;20433;-90
2022/10/27 01:49:46;;;;;;;23.98;17.88;;;;;;;9.04;100.00;100415.81;4895224;29;20028;-90
2022/10/27 01:52:38;;;;;;;28.17;18.42;;;;;;;9.04;100.00;100418.41;4876159;29;20055;-90
2022/10/27 01:55:07;;;;;;;26.60;17.65;;;;;;;9.02;100.00;100423.66;4876219;29;20049;-90
2022/10/27 01:58:01;;;;;;;25.85;18.35;;;;;;;9.05;100.00;100428.75;4876858;29;20045;-90
2022/10/27 02:00:30;;;;;;;24.75;18.38;;;;;;;9.05;100.00;100436.53;4860803;29;20021;-90
2022/10/27 02:03:08;;;;;;;22.65;16.48;;;;;;;9.06;100.00;100440.00;4860757;29;20135;-90
2022/10/27 02:05:48;;;;;;;23.63;16.33;;;;;;;9.09;100.00;100435.56;4876322;29;20033;-90
2022/10/27 02:08:31;;;;;;;23.17;16.77;;;;;;;9.06;100.00;100427.88;4875354;29;20028;-91
2022/10/27 02:11:02;;;;;;;23.83;16.40;;;;;;;9.08;100.00;100439.06;4860762;29;20099;-91
2022/10/27 02:13:29;;;;;;;28.55;17.52;;;;;;;9.08;100.00;100441.66;4876208;29;20044;-90
2022/10/27 02:16:00;;;;;;;24.38;16.73;;;;;;;9.03;100.00;100438.34;4860611;29;20080;-91
2022/10/27 02:18:33;;;;;;;21.27;16.45;;;;;;;9.01;100.00;100437.53;4875924;29;20080;-89
2022/10/27 02:21:02;;;;;;;24.25;16.05;;;;;;;9.06;100.00;100451.28;4876000;29;20037;-90
2022/10/27 02:23:29;;;;;;;21.45;16.95;;;;;;;9.07;100.00;100452.13;4860585;29;20037;-89
2022/10/27 02:26:03;;;;;;;23.77;17.10;;;;;;;9.02;100.00;100444.44;4876069;29;20033;-90
2022/10/27 02:28:35;;;;;;;21.45;15.55;;;;;;;9.09;100.00;100455.50;4876007;29;20025;-90
2022/10/27 02:31:01;;;;;;;24.42;17.05;;;;;;;9.09;100.00;100450.31;4860418;29;20041;-90
2022/10/27 02:33:26;;;;;;;22.10;16.38;;;;;;;9.07;100.00;100450.38;4875881;29;20040;-89
2022/10/27 02:35:54;;;;;;;25.00;16.40;;;;;;;9.02;100.00;100447.06;4875926;29;20040;-91
2022/10/27 02:38:20;;;;;;;22.75;17.15;;;;;;;9.02;100.00;100457.44;4875566;29;20040;-89
2022/10/27 02:40:46;;;;;;;27.63;16.70;;;;;;;8.98;100.00;100454.06;4875568;29;20037;-90
2022/10/27 02:43:11;;;;;;;20.90;16.45;;;;;;;8.94;100.00;100452.44;4875910;29;20343;-88
2022/10/27 02:45:36;;;;;;;24.38;17.50;;;;;;;8.89;100.00;100443.94;4875676;29;20033;-88
2022/10/27 02:48:02;;;;;;;19.52;15.85;;;;;;;8.90;100.00;100448.22;4860017;29;20025;-89
2022/10/27 02:50:27;;;;;;;22.70;17.23;;;;;;;8.87;100.00;100448.31;4875626;29;20037;-88
2022/10/27 02:52:52;;;;;;;26.33;18.33;;;;;;;8.82;100.00;100434.59;4863232;29;20044;-87
2022/10/27 02:55:18;;;;;;;23.42;17.45;;;;;;;8.87;100.00;100448.31;4878469;29;20024;-88
2022/10/27 02:57:45;;;;;;;21.75;17.33;;;;;;;8.83;100.00;100444.06;4878674;29;20036;-88
2022/10/27 03:00:11;;;;;;;22.45;16.27;;;;;;;8.84;100.00;100444.94;4878290;29;20115;-87
2022/10/27 03:02:36;;;;;;;22.98;17.38;;;;;;;8.84;100.00;100448.38;4878496;29;20173;-88
2022/10/27 03:05:02;;;;;;;21.77;16.55;;;;;;;8.84;100.00;100452.72;4878605;29;20133;-87
2022/10/27 03:07:27;;;;;;;21.70;18.10;;;;;;;8.81;100.00;100450.22;4878629;29;20498;-87
2022/10/27 03:09:53;;;;;;;23.05;16.98;;;;;;;8.81;100.00;100469.25;4878545;29;20171;-87
2022/10/27 03:12:18;;;;;;;23.02;17.80;;;;;;;8.80;100.00;100474.47;4878282;29;20420;-88
2022/10/27 03:14:44;;;;;;;21.95;17.40;;;;;;;8.82;100.00;100470.09;4894061;29;20471;-91
2022/10/27 03:17:09;;;;;;;20.63;16.00;;;;;;;8.81;100.00;100469.25;4878273;29;20060;-90
2022/10/27 03:19:35;;;;;;;24.45;17.40;;;;;;;8.81;100.00;100474.47;4880442;29;20032;-91
2022/10/27 03:22:00;;;;;;;22.90;18.23;;;;;;;8.82;100.00;100472.72;4882450;29;20029;-90
2022/10/27 03:24:25;;;;;;;22.67;17.48;;;;;;;8.81;100.00;100471.00;4897675;29;20041;-90
2022/10/27 03:26:51;;;;;;;27.75;19.60;;;;;;;8.79;100.00;100471.03;4897734;29;20033;-90
2022/10/27 03:29:16;;;;;;;26.55;19.48;;;;;;;8.81;100.00;100476.22;4945338;28;20484;-91
2022/10/27 03:31:42;;;;;;;26.40;18.15;;;;;;;8.79;100.00;100477.97;4978730;28;20435;-93
2022/10/27 03:34:07;;;;;;;26.02;19.95;;;;;;;8.76;100.00;100476.28;4978208;28;20033;-91
2022/10/27 03:36:32;;;;;;;23.65;19.92;;;;;;;8.75;100.00;100479.78;4978381;28;20034;-91
2022/10/27 03:38:58;;;;;;;28.88;22.25;;;;;;;8.69;100.00;100482.56;4978223;28;20034;-89
2022/10/27 03:41:23;;;;;;;27.77;21.70;;;;;;;8.69;100.00;100486.00;4977804;28;20018;-89
2022/10/27 03:43:48;;;;;;;26.00;19.83;;;;;;;8.70;100.00;100494.66;4978342;28;20022;-89
2022/10/27 03:46:14;;;;;;;24.73;19.27;;;;;;;8.65;100.00;100492.16;4978139;28;20461;-89
2022/10/27 03:48:39;;;;;;;24.77;19.40;;;;;;;8.66;100.00;100506.00;4978250;28;20022;-90
2022/10/27 03:51:05;;;;;;;23.23;19.23;;;;;;;8.59;100.00;100494.91;4978468;28;20141;-90
2022/10/27 03:53:30;;;;;;;25.67;19.63;;;;;;;8.62;100.00;100504.38;4974585;28;20050;-90
2022/10/27 03:55:56;;;;;;;26.70;19.75;;;;;;;8.57;100.00;100516.63;4974600;28;20110;-90
2022/10/27 03:58:21;;;;;;;28.27;20.02;;;;;;;8.56;100.00;100507.97;4974716;28;20022;-89
2022/10/27 04:00:46;;;;;;;28.67;20.23;;;;;;;8.50;100.00;100503.78;4953903;29;20031;-89
2022/10/27 04:03:12;;;;;;;25.55;19.73;;;;;;;8.53;100.00;100510.66;4938381;29;20558;-91
2022/10/27 04:05:38;;;;;;;26.45;18.42;;;;;;;8.50;100.00;100513.31;4942089;29;20035;-91
2022/10/27 04:08:04;;;;;;;27.00;20.42;;;;;;;8.45;100.00;100510.81;4938037;29;20039;-90
2022/10/27 04:10:30;;;;;;;27.33;19.33;;;;;;;8.45;100.00;100510.81;4937694;29;20035;-90
2022/10/27 04:12:56;;;;;;;31.00;21.63;;;;;;;8.45;100.00;100510.81;4938007;29;20479;-91
2022/10/27 04:15:24;;;;;;;56.63;33.88;;;;;;;8.46;100.00;100511.69;4937740;29;20042;-91
2022/10/27 04:17:53;;;;;;;47.92;29.25;;;;;;;8.42;100.00;100508.28;4937866;29;20105;-91
2022/10/27 04:20:18;;;;;;;44.67;27.20;;;;;;;8.43;100.00;100514.38;4937377;29;20155;-91
2022/10/27 04:22:44;;;;;;;27.52;20.40;;;;;;;8.43;100.00;100514.38;4937689;29;20572;-92
2022/10/27 04:25:09;;;;;;;28.80;21.33;;;;;;;8.42;100.00;100515.22;4937523;29;20619;-92
2022/10/27 04:27:34;;;;;;;29.92;21.70;;;;;;;8.42;100.00;100512.63;4937542;29;20155;-90
2022/10/27 04:30:00;;;;;;;28.00;20.88;;;;;;;8.41;100.00;100516.97;4937229;28;20019;-90
2022/10/27 04:32:25;;;;;;;28.80;20.33;;;;;;;8.40;100.00;100519.63;4964268;28;20097;-90
2022/10/27 04:34:51;;;;;;;27.75;20.70;;;;;;;8.37;100.00;100515.34;4974285;28;20482;-90
2022/10/27 04:37:16;;;;;;;31.13;23.23;;;;;;;8.36;100.00;100508.44;4973616;28;20022;-90
2022/10/27 04:39:42;;;;;;;33.13;23.98;;;;;;;8.36;100.00;100512.78;4974103;28;20463;-91
2022/10/27 04:42:09;;;;;;;31.10;22.67;;;;;;;8.36;100.00;100515.38;4974079;28;20033;-90
2022/10/27 04:44:34;;;;;;;31.85;22.05;;;;;;;8.34;100.00;100517.97;4973953;28;20033;-90
2022/10/27 04:47:00;;;;;;;32.65;22.45;;;;;;;8.33;100.00;100525.81;4974516;28;20374;-90
2022/10/27 04:49:25;;;;;;;34.53;21.98;;;;;;;8.33;100.00;100518.03;4973441;28;20033;-90
2022/10/27 04:51:51;;;;;;;34.35;23.10;;;;;;;8.33;100.00;100526.66;4973658;28;20525;-90
2022/10/27 04:54:16;;;;;;;31.38;23.33;;;;;;;8.30;100.00;100524.16;4976581;28;20042;-90
2022/10/27 04:56:41;;;;;;;33.63;22.02;;;;;;;8.30;100.00;100528.47;4934011;29;20407;-90
2022/10/27 04:59:07;;;;;;;33.58;22.33;;;;;;;8.30;100.00;100523.28;4918271;29;20059;-89
2022/10/27 05:01:32;;;;;;;33.13;24.38;;;;;;;8.22;100.00;100511.34;4917917;29;20410;-90
2022/10/27 05:03:57;;;;;;;32.80;24.17;;;;;;;8.29;100.00;100531.97;4918197;29;20099;-91
2022/10/27 05:06:23;;;;;;;38.63;24.70;;;;;;;8.28;100.00;100530.25;4917816;29;20549;-91
2022/10/27 05:08:48;;;;;;;38.17;25.63;;;;;;;8.34;100.00;100532.69;4918007;29;20114;-91
2022/10/27 05:11:14;;;;;;;36.35;26.48;;;;;;;8.29;100.00;100530.22;4917769;29;20524;-91
2022/10/27 05:13:39;;;;;;;38.30;24.98;;;;;;;8.34;100.00;100533.53;4933987;29;20047;-91
2022/10/27 05:16:05;;;;;;;35.22;23.05;;;;;;;8.35;100.00;100540.47;4917832;29;20115;-91
2022/10/27 05:18:30;;;;;;;36.17;23.80;;;;;;;8.35;100.00;100537.88;4917348;29;20142;-91
2022/10/27 05:20:56;;;;;;;32.60;22.15;;;;;;;8.39;100.00;100549.94;4933789;29;20034;-92
2022/10/27 05:23:22;;;;;;;34.75;21.77;;;;;;;8.42;100.00;100548.97;4895330;29;20083;-90
2022/10/27 05:25:54;;;;;;;31.27;21.60;;;;;;;8.42;100.00;100544.63;4880102;29;20051;-90
2022/10/27 05:28:20;;;;;;;30.83;22.40;;;;;;;8.45;100.00;100549.78;4923181;29;20127;-89
2022/10/27 05:30:46;;;;;;;27.52;20.55;;;;;;;8.44;100.00;100547.22;4936406;29;20106;-89
2022/10/27 05:33:12;;;;;;;37.60;24.38;;;;;;;8.47;100.00;100555.78;4936411;29;20035;-90
2022/10/27 05:35:37;;;;;;;31.67;23.10;;;;;;;8.44;100.00;100550.66;4936359;29;20035;-89
2022/10/27 05:38:02;;;;;;;35.10;23.90;;;;;;;8.44;100.00;100557.59;4936338;29;20035;-91
2022/10/27 05:40:33;;;;;;;40.13;25.25;;;;;;;8.45;100.00;100554.09;4936102;29;20106;-90
2022/10/27 05:43:00;;;;;;;45.03;26.67;;;;;;;8.43;100.00;100551.56;4952669;28;20047;-90
2022/10/27 05:45:26;;;;;;;37.25;26.02;;;;;;;8.48;100.00;100561.84;4952149;29;20033;-91
2022/10/27 05:47:59;;;;;;;38.28;24.55;;;;;;;8.46;100.00;100564.44;4936005;29;20085;-90
2022/10/27 05:50:29;;;;;;;46.05;28.20;;;;;;;8.49;100.00;100564.38;4935880;29;20026;-92
2022/10/27 05:52:54;;;;;;;46.22;28.33;;;;;;;8.54;100.00;100573.81;4935825;29;20058;-91
2022/10/27 05:55:20;;;;;;;46.58;28.30;;;;;;;8.58;100.00;100578.91;4973433;28;20034;-91
2022/10/27 05:58:00;;;;;;;50.20;28.00;;;;;;;8.63;100.00;100581.38;4975789;28;20541;-91
2022/10/27 06:00:31;;;;;;;41.67;27.20;;;;;;;8.66;100.00;100584.75;4991623;28;20474;-91
2022/10/27 06:02:57;;;;;;;;;;;;;;;8.73;100.00;100588.94;4976116;28;20072;-92
2022/10/27 06:05:23;;;;;;;36.00;23.00;;;;;;;8.73;100.00;100575.94;4991753;28;20401;-90
2022/10/27 06:07:49;;;;;;;37.53;23.90;;;;;;;8.88;100.00;100595.47;4991917;28;20057;-89
2022/10/27 06:10:15;;;;;;;34.28;24.65;;;;;;;8.96;100.00;100595.28;4975449;28;20112;-89
2022/10/27 06:12:40;;;;;;;40.47;25.65;;;;;;;9.03;100.00;100588.22;4975588;28;20470;-89
2022/10/27 06:15:06;;;;;;;38.38;25.10;;;;;;;9.13;100.00;100590.53;4975549;28;20065;-89
2022/10/27 06:17:31;;;;;;;31.52;21.95;;;;;;;9.21;100.00;100574.75;4975266;28;20462;-90
2022/10/27 06:19:57;;;;;;;32.65;22.45;;;;;;;9.47;100.00;100587.88;4975327;28;20049;-91
2022/10/27 06:22:22;;;;;;;34.28;22.75;;;;;;;9.68;100.00;100583.00;4991509;28;20033;-90
2022/10/27 06:24:47;;;;;;;31.10;21.70;;;;;;;9.92;100.00;100597.06;4975369;28;20058;-90
2022/10/27 06:27:13;;;;;;;38.72;21.65;;;;;;;10.16;100.00;100604.16;4975288;28;20053;-90
2022/10/27 06:29:38;;;;;;;36.35;22.13;;;;;;;10.47;100.00;100609.31;4975012;28;20113;-91
2022/10/27 06:32:04;;;;;;;34.80;21.98;;;;;;;10.95;100.00;100615.63;4975309;28;20029;-91
2022/10/27 06:34:29;;;;;;;31.70;21.25;;;;;;;11.21;100.00;100614.78;4975043;28;20018;-91
2022/10/27 06:36:54;;;;;;;33.15;21.23;;;;;;;11.49;100.00;100625.09;4991491;28;20149;-91
2022/10/27 06:39:20;;;;;;;29.60;19.77;;;;;;;12.10;100.00;100619.47;4975054;28;20022;-91
2022/10/27 06:41:45;;;;;;;29.02;20.00;;;;;;;13.34;100.00;100620.59;4975112;28;20096;-91
2022/10/27 06:44:10;;;;;;;29.33;19.77;;;;;;;14.12;100.00;100632.88;4991324;28;20056;-91
2022/10/27 06:46:38;;;;;;;32.35;22.40;;;;;;;14.18;100.00;100621.28;4974664;28;20466;-91
2022/10/27 06:49:04;;;;;;;31.98;21.00;;;;;;;14.18;100.00;100635.22;4975247;28;20030;-92
2022/10/27 06:51:30;;;;;;;29.77;19.95;;;;;;;14.80;99.31;100635.00;4991098;28;20030;-91
2022/10/27 06:53:55;;;;;;;31.33;21.38;;;;;;;15.66;93.70;100632.41;4974487;28;20537;-90
2022/10/27 06:56:21;;;;;;;31.67;21.77;;;;;;;15.70;92.14;100635.72;4974761;28;20112;-91
2022/10/27 06:58:47;;;;;;;33.63;22.35;;;;;;;15.51;92.41;100633.19;4975072;28;20470;-91
2022/10/27 07:01:12;;;;;;;27.27;20.25;;;;;;;15.83;92.78;100639.41;4974745;28;20036;-90
2022/10/27 07:03:38;;;;;;;28.52;21.30;;;;;;;17.05;88.22;100641.50;4974817;28;20347;-89
2022/10/27 07:06:03;;;;;;;24.75;19.13;;;;;;;17.19;84.12;100631.88;4975046;28;20026;-90
2022/10/27 07:08:28;;;;;;;28.25;20.48;;;;;;;16.82;85.60;100637.56;4974710;28;20025;-90
2022/10/27 07:10:54;;;;;;;23.23;17.67;;;;;;;16.18;87.32;100640.16;4974948;28;20121;-90
2022/10/27 07:13:20;;;;;;;24.25;18.20;;;;;;;16.00;89.58;100640.28;4974581;28;20018;-90
2022/10/27 07:15:45;;;;;;;21.52;17.20;;;;;;;15.86;90.23;100636.63;4974678;28;20121;-89
2022/10/27 07:18:11;;;;;;;22.42;16.55;;;;;;;15.78;90.66;100643.22;4974894;28;20033;-89
2022/10/27 07:20:39;;;;;;;23.00;16.58;;;;;;;15.64;91.53;100641.28;4974506;28;20466;-90
2022/10/27 07:23:07;;;;;;;20.38;14.38;;;;;;;15.68;92.27;100653.34;4974898;28;20053;-90
2022/10/27 07:25:33;;;;;;;18.27;14.68;;;;;;;15.61;92.62;100655.41;4974772;28;20100;-90
2022/10/27 07:28:00;;;;;;;23.00;14.32;;;;;;;15.60;93.36;100660.75;4974810;28;20138;-89
2022/10/27 07:30:28;;;;;;;17.77;12.75;;;;;;;15.54;93.83;100640.88;4974606;28;20095;-89
2022/10/27 07:32:53;;;;;;;18.30;13.65;;;;;;;15.63;93.96;100661.44;4975080;28;20022;-90
2022/10/27 07:35:19;;;;;;;20.80;13.35;;;;;;;15.73;94.03;100664.47;4992426;28;20072;-90
2022/10/27 07:37:45;;;;;;;15.52;12.90;;;;;;;15.76;94.12;100663.44;4974967;28;20034;-90
2022/10/27 07:40:13;;;;;;;18.05;13.18;;;;;;;15.77;94.18;100666.00;4992135;28;20458;-90
2022/10/27 07:42:57;;;;;;;17.08;13.55;;;;;;;15.85;93.96;100684.00;4974190;28;20401;-89
2022/10/27 07:45:24;;;;;;;16.10;12.23;;;;;;;15.88;93.80;100681.19;4936172;29;20027;-89
2022/10/27 07:47:52;;;;;;;21.08;14.40;;;;;;;15.96;93.92;100679.00;4936338;29;20073;-89
2022/10/27 07:50:20;;;;;;;21.60;13.93;;;;;;;16.01;93.39;100679.63;4936299;29;20082;-90
2022/10/27 07:52:47;;;;;;;20.30;15.38;;;;;;;16.01;93.26;100677.00;4951880;29;20042;-90
2022/10/27 07:55:14;;;;;;;20.77;14.63;;;;;;;16.04;92.99;100676.00;4936125;28;20019;-91
2022/10/27 07:57:40;;;;;;;25.88;15.93;;;;;;;16.11;93.04;100683.47;4936104;29;20558;-91
2022/10/27 08:00:16;;;;;;;21.23;15.30;;;;;;;16.19;92.90;100689.16;4936843;29;20106;-90
2022/10/27 08:02:43;;;;;;;23.63;14.63;;;;;;;16.19;93.06;100681.28;4935888;29;20483;-90
2022/10/27 08:05:10;;;;;;;22.42;15.18;;;;;;;16.23;92.77;100689.88;4936088;29;20344;-92
2022/10/27 08:07:37;;;;;;;21.33;13.77;;;;;;;16.28;92.96;100690.47;4939034;29;20056;-92
2022/10/27 08:10:03;;;;;;;18.17;13.18;;;;;;;16.32;93.15;100685.88;4939443;28;20411;-88
2022/10/27 08:12:28;;;;;;;15.82;13.60;;;;;;;16.35;93.13;100688.31;4955137;29;20118;-90
2022/10/27 08:14:55;;;;;;;15.57;12.93;;;;;;;16.36;93.66;100692.69;4955430;29;20452;-91
2022/10/27 08:17:21;;;;;;;18.30;12.73;;;;;;;16.41;93.49;100695.91;4939573;29;20387;-91
2022/10/27 08:19:46;;;;;;;17.60;13.20;;;;;;;16.35;93.71;100683.94;4954879;28;20399;-89
2022/10/27 08:22:12;;;;;;;18.73;13.00;;;;;;;16.45;94.09;100703.53;4955138;29;20086;-91
2022/10/27 08:24:38;;;;;;;18.08;13.02;;;;;;;16.44;94.28;100696.59;4938732;28;20081;-90
2022/10/27 08:27:03;;;;;;;15.25;12.20;;;;;;;16.42;94.66;100708.97;4939209;29;20020;-89
2022/10/27 08:29:29;;;;;;;14.50;12.38;;;;;;;16.43;94.85;100710.69;4954880;29;20059;-89
2022/10/27 08:31:54;;;;;;;23.42;11.73;;;;;;;16.41;95.08;100699.38;4955002;29;20040;-89
2022/10/27 08:34:19;;;;;;;18.80;11.55;;;;;;;16.44;95.36;100707.09;4938961;29;20464;-89
2022/10/27 08:36:45;;;;;;;15.93;10.32;;;;;;;16.44;95.58;100708.91;4938715;29;20070;-89
2022/10/27 08:39:11;;;;;;;17.13;11.02;;;;;;;16.44;95.56;100707.09;4938760;28;20046;-89
2022/10/27 08:42:06;;;;;;;16.20;11.07;;;;;;;16.42;95.93;100705.47;4938428;29;20027;-89
2022/10/27 08:45:05;;;;;;;14.70;10.73;;;;;;;16.43;96.30;100713.31;4938646;29;20023;-89
2022/10/27 08:47:31;;;;;;;15.63;9.85;;;;;;;16.44;96.96;100715.00;4880694;29;20379;-91
2022/10/27 08:50:23;;;;;;;13.27;9.18;;;;;;;16.40;97.34;100718.72;4880954;29;20025;-91
2022/10/27 08:52:53;;;;;;;12.95;9.35;;;;;;;16.40;97.49;100710.00;4877290;29;20057;-89
2022/10/27 08:55:19;;;;;;;;;;;;;;;16.39;97.77;100717.03;4878243;29;20037;-90
2022/10/27 08:58:15;;;;;;;12.20;8.25;;;;;;;16.40;97.58;100718.72;4877275;29;19920;-90
2022/10/27 09:01:19;;;;;;;15.18;9.73;;;;;;;16.41;97.89;100712.53;4861760;29;20085;-90
2022/10/27 09:03:47;;;;;;;12.50;7.97;;;;;;;16.41;98.47;100709.91;4858770;29;20042;-89
2022/10/27 09:06:30;;;;;;;10.70;8.10;;;;;;;16.43;98.66;100705.41;4858806;29;20034;-89
2022/10/27 09:09:16;;;;;;;12.57;8.10;;;;;;;16.46;98.60;100707.00;4858788;29;20041;-90
2022/10/27 09:12:02;;;;;;;10.23;7.65;;;;;;;16.49;98.73;100703.38;4858718;29;20038;-90
2022/10/27 09:14:36;;;;;;;11.25;7.15;;;;;;;16.51;98.78;100702.34;4858480;29;20041;-90
2022/10/27 09:17:13;;;;;;;12.15;7.13;;;;;;;16.52;98.92;100698.81;4858436;29;20185;-89
2022/10/27 09:19:49;;;;;;;13.55;8.60;;;;;;;16.56;99.27;100699.47;4856724;29;20066;-88
2022/10/27 09:22:18;;;;;;;13.43;7.28;;;;;;;16.61;99.40;100708.81;4857676;29;20060;-90
2022/10/27 09:24:51;;;;;;;9.23;6.70;;;;;;;16.61;99.52;100706.19;4842204;29;20534;-93
2022/10/27 09:28:18;;;;;;;8.48;6.15;;;;;;;16.66;99.54;100708.56;4839857;29;20061;-93
2022/10/27 09:30:48;;;;;;;11.70;7.07;;;;;;;16.67;99.38;100707.63;4857537;29;20401;-93
2022/10/27 09:33:19;;;;;;;13.98;7.82;;;;;;;16.64;98.56;100697.25;4873614;29;20225;-90
2022/10/27 09:35:44;;;;;;;20.45;13.15;;;;;;;16.65;97.99;100706.88;4873191;29;20030;-95
2022/10/27 09:38:14;;;;;;;18.85;12.73;;;;;;;16.52;98.52;100690.91;4873586;29;20038;-92
2022/10/27 09:40:39;;;;;;;18.92;11.90;;;;;;;16.57;98.84;100698.56;4890592;29;20040;-93
2022/10/27 09:43:05;;;;;;;21.15;11.60;;;;;;;16.57;99.05;100704.66;4879726;29;20031;-94
2022/10/27 09:45:31;;;;;;;20.13;12.05;;;;;;;16.55;98.70;100710.94;4879288;29;20131;-92
2022/10/27 09:48:03;;;;;;;17.08;11.50;;;;;;;16.50;98.96;100705.91;4879260;29;20044;-93
2022/10/27 09:50:39;;;;;;;16.17;10.93;;;;;;;16.35;99.27;100694.47;4894944;29;20036;-92
2022/10/27 09:53:25;;;;;;;14.48;10.60;;;;;;;16.46;99.47;100714.91;4874320;29;20064;-89
2022/10/27 09:55:52;;;;;;;11.98;8.85;;;;;;;16.35;99.94;100685.69;4860564;29;20031;-90
2022/10/27 09:58:19;;;;;;;11.60;8.02;;;;;;;16.45;100.00;100702.69;4876071;29;20144;-89
2022/10/27 10:00:54;;;;;;;17.77;9.43;;;;;;;16.48;100.00;100720.94;4860319;29;20437;-89
2022/10/27 10:03:20;;;;;;;17.30;10.68;;;;;;;16.48;100.00;100707.78;4860551;29;20044;-88
2022/10/27 10:05:57;;;;;;;14.52;9.57;;;;;;;16.46;100.00;100707.00;4860010;29;20025;-88
2022/10/27 10:08:34;;;;;;;17.23;9.30;;;;;;;16.36;100.00;100687.41;4876391;29;20132;-89
2022/10/27 10:11:20;;;;;;;10.73;8.40;;;;;;;16.55;100.00;100721.44;4876296;29;20025;-90
2022/10/27 10:14:21;;;;;;;14.90;8.77;;;;;;;16.55;100.00;100722.28;4876387;29;20073;-96
2022/10/27 10:16:47;;;;;;;12.73;8.80;;;;;;;16.60;100.00;100720.28;4841455;29;20041;-94
2022/10/27 10:19:19;;;;;;;14.35;8.48;;;;;;;16.59;100.00;100718.56;4839607;29;20098;-96
2022/10/27 10:21:58;;;;;;;10.45;8.20;;;;;;;16.59;100.00;100717.72;4843566;29;20184;-95
2022/10/27 10:24:27;;;;;;;13.63;9.20;;;;;;;16.62;100.00;100722.81;4804385;29;20055;-93
2022/10/27 10:26:55;;;;;;;10.18;7.93;;;;;;;16.64;100.00;100719.19;4815918;29;20050;-93
2022/10/27 10:29:28;;;;;;;13.27;9.55;;;;;;;16.66;100.00;100721.72;4853761;29;20030;-89
2022/10/27 10:32:27;;;;;;;11.65;9.40;;;;;;;16.65;100.00;100714.78;4838899;29;20046;-90
2022/10/27 10:34:54;;;;;;;14.68;10.02;;;;;;;16.65;100.00;100717.41;4839089;29;20405;-92
2022/10/27 10:37:39;;;;;;;9.73;7.45;;;;;;;16.70;100.00;100720.63;4839283;29;20418;-89
2022/10/27 10:40:11;;;;;;;9.73;7.88;;;;;;;16.74;100.00;100726.59;4838789;29;20045;-90
2022/10/27 10:42:37;;;;;;;13.32;8.45;;;;;;;16.67;100.00;100702.38;4854289;29;20363;-91
2022/10/27 10:45:17;;;;;;;18.42;10.27;;;;;;;16.77;100.00;100722.03;4838871;29;20151;-91
2022/10/27 10:47:48;;;;;;;15.73;8.38;;;;;;;16.71;100.00;100699.47;4856490;29;20444;-87
2022/10/27 10:50:15;;;;;;;11.30;7.30;;;;;;;16.79;100.00;100709.63;4891249;29;20373;-89
2022/10/27 10:52:48;;;;;;;8.65;7.00;;;;;;;16.84;100.00;100706.72;4890948;29;20500;-90
2022/10/27 10:55:26;;;;;;;11.23;6.97;;;;;;;16.84;100.00;100696.19;4900919;29;20036;-87
2022/10/27 10:57:54;;;;;;;9.27;6.68;;;;;;;16.95;100.00;100715.72;4933139;29;20038;-89
2022/10/27 11:00:20;;;;;;;8.85;6.88;;;;;;;16.95;100.00;100702.56;4917460;29;20367;-89
2022/10/27 11:03:16;;;;;;;9.73;6.72;;;;;;;17.06;100.00;100711.63;4917171;29;20024;-87
2022/10/27 11:05:42;;;;;;;10.20;6.45;;;;;;;17.11;100.00;100720.13;4934936;29;20030;-92
2022/10/27 11:08:20;;;;;;;10.13;6.70;;;;;;;17.14;100.00;100707.63;4933638;29;20027;-87
2022/10/27 11:10:47;;;;;;;12.20;6.05;;;;;;;17.14;100.00;100712.03;4934449;29;20079;-90
2022/10/27 11:13:19;;;;;;;9.45;5.50;;;;;;;17.12;100.00;100698.13;4917338;29;20031;-87
2022/10/27 11:15:53;;;;;;;12.82;6.00;;;;;;;17.17;100.00;100702.19;4934595;29;20031;-89
2022/10/27 11:18:26;;;;;;;11.52;6.72;;;;;;;17.25;100.00;100706.16;4934375;29;20031;-89
2022/10/27 11:21:02;;;;;;;8.10;5.82;;;;;;;17.30;100.00;100710.22;4934116;29;20480;-89